createdAt,value
2023-04-18T00:02:10.631Z,95558.69
2023-04-18T00:12:17.288Z,95641.06
2023-04-18T00:22:23.948Z,95661.75
2023-04-18T00:32:30.799Z,95654.81
2023-04-18T00:42:37.676Z,95656.19
2023-04-18T00:52:45.577Z,95637.34
2023-04-18T01:02:54.548Z,95623.00
2023-04-18T01:13:16.773Z,95558.19
2023-04-18T01:23:23.693Z,95520.31
2023-04-18T01:33:30.190Z,95500.38
2023-04-18T01:43:37.354Z,95568.53
2023-04-18T01:53:43.826Z,95623.03
2023-04-18T02:03:50.738Z,95624.66
2023-04-18T02:13:57.355Z,95584.34
2023-04-18T02:24:03.800Z,95533.66
2023-04-18T02:34:10.721Z,95551.22
2023-04-18T02:44:18.427Z,95555.44
2023-04-18T02:54:26.103Z,95538.81
2023-04-18T03:04:33.260Z,95546.19
2023-04-18T03:14:39.883Z,95564.69
2023-04-18T03:24:46.484Z,95554.34
2023-04-18T03:34:53.005Z,95487.31
2023-04-18T03:44:59.534Z,95499.19
2023-04-18T03:55:06.491Z,95494.28
2023-04-18T04:05:12.983Z,95543.19
2023-04-18T04:15:19.513Z,95575.59
2023-04-18T04:25:30.066Z,95569.38
2023-04-18T04:35:38.100Z,95594.38
2023-04-18T04:45:45.907Z,95585.41
2023-04-18T04:55:53.177Z,95595.75
2023-04-18T05:05:59.735Z,95603.44
2023-04-18T05:16:07.099Z,95657.09
2023-04-18T05:26:13.730Z,95693.66
2023-04-18T05:36:20.311Z,95796.41
2023-04-18T05:46:26.881Z,95865.47
2023-04-18T05:56:33.352Z,96003.25
2023-04-18T06:06:39.918Z,96057.75
2023-04-18T06:16:46.414Z,96145.72
2023-04-18T06:26:53.846Z,96239.97
2023-04-18T06:37:00.514Z,96285.41
2023-04-18T06:47:07.406Z,96319.06
2023-04-18T06:57:13.954Z,96393.34
2023-04-18T07:07:20.821Z,96472.25
2023-04-18T07:17:27.835Z,96552.56
2023-04-18T07:27:37.019Z,96599.22
2023-04-18T07:37:43.589Z,96652.19
2023-04-18T07:47:50.094Z,96774.59
2023-04-18T07:57:56.611Z,96880.28
2023-04-18T08:08:03.190Z,97025.31
2023-04-18T08:18:10.330Z,97138.03
2023-04-18T08:28:17.094Z,97166.94
2023-04-18T08:38:23.739Z,97241.00
2023-04-18T08:48:30.949Z,97260.53
2023-04-18T08:58:37.453Z,97346.34
2023-04-18T09:08:45.118Z,97403.88
2023-04-18T09:19:15.762Z,97527.78
2023-04-18T09:29:23.817Z,97610.91
2023-04-18T09:39:30.622Z,97646.31
2023-04-18T09:49:37.582Z,97666.06
2023-04-18T10:00:26.001Z,97756.44
2023-04-18T10:10:32.559Z,97739.50
2023-04-18T10:20:42.075Z,97705.19
2023-04-18T10:30:48.496Z,97793.38
2023-04-18T10:40:55.739Z,97857.88
2023-04-18T10:51:19.917Z,97898.56
2023-04-18T11:01:32.461Z,97909.47
2023-04-18T11:11:41.399Z,97969.19
2023-04-18T11:21:47.959Z,98044.72
2023-04-18T11:31:58.354Z,98013.69
2023-04-18T11:42:04.351Z,98068.84
2023-04-18T11:52:16.460Z,98057.34
2023-04-18T12:02:24.594Z,98089.75
2023-04-18T12:12:31.239Z,98139.63
2023-04-18T12:22:48.661Z,98122.84
2023-04-18T12:32:57.387Z,98122.59
2023-04-18T12:43:04.144Z,98152.53
2023-04-18T12:53:10.680Z,98149.41
2023-04-18T13:03:17.489Z,98177.25
2023-04-18T13:13:24.096Z,98166.56
2023-04-18T13:23:30.576Z,98197.06
2023-04-18T13:33:37.069Z,98190.81
2023-04-18T13:43:43.617Z,98107.69
2023-04-18T13:53:50.095Z,98185.84
2023-04-18T14:03:57.440Z,98003.37
2023-04-18T14:14:04.047Z,98026.78
2023-04-18T14:24:10.598Z,97992.38
2023-04-18T14:34:17.180Z,97853.94
2023-04-18T14:44:23.743Z,97861.16
2023-04-18T14:54:32.498Z,97864.16
2023-04-18T15:04:39.278Z,97851.41
2023-04-18T15:14:45.885Z,97899.88
2023-04-18T15:24:52.745Z,97931.97
2023-04-18T15:34:59.444Z,97877.53
2023-04-18T15:45:06.464Z,97877.62
2023-04-18T15:55:14.408Z,97837.75
2023-04-18T16:05:20.921Z,97844.63
2023-04-18T16:15:27.468Z,97845.06
2023-04-18T16:25:34.130Z,97811.97
2023-04-18T16:35:41.647Z,97781.88
2023-04-18T16:45:48.149Z,97793.69
2023-04-18T16:55:54.933Z,97772.28
2023-04-18T17:06:02.888Z,97775.31
2023-04-18T17:16:09.938Z,97765.47
2023-04-18T17:26:16.451Z,97679.94
2023-04-18T17:36:23.061Z,97601.81
2023-04-18T17:46:29.617Z,97555.66
2023-04-18T17:56:36.187Z,97489.34
2023-04-18T18:06:43.980Z,97493.75
2023-04-18T18:16:50.502Z,97515.72
2023-04-18T18:26:57.692Z,97498.91
2023-04-18T18:37:04.239Z,97507.00
2023-04-18T18:47:10.791Z,97486.97
2023-04-18T18:57:17.265Z,97475.72
2023-04-18T19:07:23.873Z,97456.75
2023-04-18T19:17:30.467Z,97427.03
2023-04-18T19:27:37.259Z,97465.44
2023-04-18T19:37:44.534Z,97432.06
2023-04-18T19:47:51.212Z,97382.16
2023-04-18T19:58:00.566Z,97339.88
2023-04-18T20:08:07.359Z,97209.94
2023-04-18T20:18:13.847Z,97164.38
2023-04-18T20:28:20.439Z,97095.19
2023-04-18T20:38:30.766Z,96949.34
2023-04-18T20:48:37.821Z,96829.75
2023-04-18T20:58:44.506Z,96673.50
2023-04-18T21:08:51.052Z,96545.31
2023-04-18T21:18:57.645Z,96402.59
2023-04-18T21:29:07.947Z,96260.88
2023-04-18T21:39:14.487Z,96118.78
2023-04-18T21:49:21.611Z,95980.97
2023-04-18T21:59:28.175Z,95858.62
2023-04-18T22:09:37.592Z,95775.41
2023-04-18T22:19:45.648Z,95690.69
2023-04-18T22:29:52.438Z,95643.88
2023-04-18T22:39:58.971Z,95606.25
2023-04-18T22:50:05.768Z,95578.56
2023-04-18T23:00:15.121Z,95552.63
2023-04-18T23:10:21.715Z,95505.19
2023-04-18T23:20:28.228Z,95439.47
2023-04-18T23:30:37.362Z,95397.84
2023-04-18T23:40:44.094Z,95368.97
2023-04-18T23:50:51.625Z,95318.41
